sensor_id;sensor_type;location;lat;lon;timestamp;temperature;humidity
11136;DHT22;5622;50.840;4.948;2023-03-14T00:00:51;11.50;99.90
11136;DHT22;5622;50.840;4.948;2023-03-14T00:03:20;11.50;99.90
11136;DHT22;5622;50.840;4.948;2023-03-14T00:05:47;11.50;99.90
11136;DHT22;5622;50.840;4.948;2023-03-14T00:08:14;11.40;99.90
11136;DHT22;5622;50.840;4.948;2023-03-14T00:10:41;11.40;99.90
11136;DHT22;5622;50.840;4.948;2023-03-14T00:13:09;11.40;99.90
11136;DHT22;5622;50.840;4.948;2023-03-14T00:15:36;11.30;99.90
11136;DHT22;5622;50.840;4.948;2023-03-14T00:18:03;11.30;99.90
11136;DHT22;5622;50.840;4.948;2023-03-14T00:20:31;11.20;99.90
11136;DHT22;5622;50.840;4.948;2023-03-14T00:22:59;11.20;99.90
11136;DHT22;5622;50.840;4.948;2023-03-14T00:25:26;11.20;99.90
11136;DHT22;5622;50.840;4.948;2023-03-14T00:27:53;11.10;99.90
11136;DHT22;5622;50.840;4.948;2023-03-14T00:30:20;11.10;99.90
11136;DHT22;5622;50.840;4.948;2023-03-14T00:32:47;11.00;99.90
11136;DHT22;5622;50.840;4.948;2023-03-14T00:35:15;11.00;99.90
11136;DHT22;5622;50.840;4.948;2023-03-14T00:37:43;11.00;99.90
11136;DHT22;5622;50.840;4.948;2023-03-14T00:40:11;10.90;99.90
11136;DHT22;5622;50.840;4.948;2023-03-14T00:42:38;10.90;99.90
11136;DHT22;5622;50.840;4.948;2023-03-14T00:45:06;10.90;99.90
11136;DHT22;5622;50.840;4.948;2023-03-14T00:47:34;10.80;99.90
11136;DHT22;5622;50.840;4.948;2023-03-14T00:50:01;10.80;99.90
11136;DHT22;5622;50.840;4.948;2023-03-14T00:52:28;10.80;99.90
11136;DHT22;5622;50.840;4.948;2023-03-14T00:54:57;10.80;99.90
11136;DHT22;5622;50.840;4.948;2023-03-14T00:57:24;10.80;99.90
11136;DHT22;5622;50.840;4.948;2023-03-14T00:59:51;10.80;99.90
11136;DHT22;5622;50.840;4.948;2023-03-14T01:02:19;10.80;99.90
11136;DHT22;5622;50.840;4.948;2023-03-14T01:04:47;10.80;99.90
11136;DHT22;5622;50.840;4.948;2023-03-14T01:07:15;10.80;99.90
11136;DHT22;5622;50.840;4.948;2023-03-14T01:09:42;10.80;99.90
11136;DHT22;5622;50.840;4.948;2023-03-14T01:12:11;10.80;99.90
11136;DHT22;5622;50.840;4.948;2023-03-14T01:14:38;10.80;99.90
11136;DHT22;5622;50.840;4.948;2023-03-14T01:17:05;10.80;99.90
11136;DHT22;5622;50.840;4.948;2023-03-14T01:19:32;10.70;99.90
11136;DHT22;5622;50.840;4.948;2023-03-14T01:21:59;10.70;99.90
11136;DHT22;5622;50.840;4.948;2023-03-14T01:24:26;10.70;99.90
11136;DHT22;5622;50.840;4.948;2023-03-14T01:26:53;10.70;99.90
11136;DHT22;5622;50.840;4.948;2023-03-14T01:29:22;10.70;99.90
11136;DHT22;5622;50.840;4.948;2023-03-14T01:31:49;10.70;99.90
11136;DHT22;5622;50.840;4.948;2023-03-14T01:34:16;10.80;99.90
11136;DHT22;5622;50.840;4.948;2023-03-14T01:36:43;10.70;99.90
11136;DHT22;5622;50.840;4.948;2023-03-14T01:39:10;10.70;99.90
11136;DHT22;5622;50.840;4.948;2023-03-14T01:41:39;10.80;99.90
11136;DHT22;5622;50.840;4.948;2023-03-14T01:44:09;10.70;99.90
11136;DHT22;5622;50.840;4.948;2023-03-14T01:46:40;10.70;99.90
11136;DHT22;5622;50.840;4.948;2023-03-14T01:49:17;10.80;99.90
11136;DHT22;5622;50.840;4.948;2023-03-14T01:51:50;10.80;99.90
11136;DHT22;5622;50.840;4.948;2023-03-14T01:54:23;10.80;99.90
11136;DHT22;5622;50.840;4.948;2023-03-14T01:56:55;10.80;99.90
11136;DHT22;5622;50.840;4.948;2023-03-14T01:59:24;10.80;99.90
11136;DHT22;5622;50.840;4.948;2023-03-14T02:01:54;10.80;99.90
11136;DHT22;5622;50.840;4.948;2023-03-14T02:04:23;10.80;99.90
11136;DHT22;5622;50.840;4.948;2023-03-14T02:06:54;10.70;99.90
11136;DHT22;5622;50.840;4.948;2023-03-14T02:09:22;10.70;99.90
11136;DHT22;5622;50.840;4.948;2023-03-14T02:11:50;10.70;99.90
11136;DHT22;5622;50.840;4.948;2023-03-14T02:14:30;10.60;99.90
11136;DHT22;5622;50.840;4.948;2023-03-14T02:17:00;10.60;99.90
11136;DHT22;5622;50.840;4.948;2023-03-14T02:19:40;10.50;99.90
11136;DHT22;5622;50.840;4.948;2023-03-14T02:22:11;10.40;99.90
11136;DHT22;5622;50.840;4.948;2023-03-14T02:24:45;10.40;99.90
11136;DHT22;5622;50.840;4.948;2023-03-14T02:27:16;10.30;99.90
11136;DHT22;5622;50.840;4.948;2023-03-14T02:29:49;10.30;99.90
11136;DHT22;5622;50.840;4.948;2023-03-14T02:32:18;10.20;99.90
11136;DHT22;5622;50.840;4.948;2023-03-14T02:34:48;10.20;99.90
11136;DHT22;5622;50.840;4.948;2023-03-14T02:37:18;10.20;99.90
11136;DHT22;5622;50.840;4.948;2023-03-14T02:39:46;10.20;99.90
11136;DHT22;5622;50.840;4.948;2023-03-14T02:42:16;10.10;99.90
11136;DHT22;5622;50.840;4.948;2023-03-14T02:44:49;10.10;99.90
11136;DHT22;5622;50.840;4.948;2023-03-14T02:47:19;10.00;99.90
11136;DHT22;5622;50.840;4.948;2023-03-14T02:49:46;10.00;99.90
11136;DHT22;5622;50.840;4.948;2023-03-14T02:52:14;9.90;99.90
11136;DHT22;5622;50.840;4.948;2023-03-14T02:54:41;9.90;99.90
11136;DHT22;5622;50.840;4.948;2023-03-14T02:57:08;9.90;99.90
11136;DHT22;5622;50.840;4.948;2023-03-14T02:59:37;9.80;99.90
11136;DHT22;5622;50.840;4.948;2023-03-14T03:02:04;9.90;99.90
11136;DHT22;5622;50.840;4.948;2023-03-14T03:04:31;9.90;99.90
11136;DHT22;5622;50.840;4.948;2023-03-14T03:06:58;9.90;99.90
11136;DHT22;5622;50.840;4.948;2023-03-14T03:09:26;9.90;99.90
11136;DHT22;5622;50.840;4.948;2023-03-14T03:11:53;9.90;99.90
11136;DHT22;5622;50.840;4.948;2023-03-14T03:14:20;9.90;99.90
11136;DHT22;5622;50.840;4.948;2023-03-14T03:16:48;9.90;99.90
11136;DHT22;5622;50.840;4.948;2023-03-14T03:19:16;9.90;99.90
11136;DHT22;5622;50.840;4.948;2023-03-14T03:21:43;9.80;99.90
11136;DHT22;5622;50.840;4.948;2023-03-14T03:24:10;9.90;99.90
11136;DHT22;5622;50.840;4.948;2023-03-14T03:26:37;9.90;99.90
11136;DHT22;5622;50.840;4.948;2023-03-14T03:29:04;9.90;99.90
11136;DHT22;5622;50.840;4.948;2023-03-14T03:31:32;9.90;99.90
11136;DHT22;5622;50.840;4.948;2023-03-14T03:34:00;9.90;99.90
11136;DHT22;5622;50.840;4.948;2023-03-14T03:36:27;9.90;99.90
11136;DHT22;5622;50.840;4.948;2023-03-14T03:38:54;9.90;99.90
11136;DHT22;5622;50.840;4.948;2023-03-14T03:41:21;9.90;99.90
11136;DHT22;5622;50.840;4.948;2023-03-14T03:43:49;9.80;99.90
11136;DHT22;5622;50.840;4.948;2023-03-14T03:46:16;9.90;99.90
11136;DHT22;5622;50.840;4.948;2023-03-14T03:48:43;9.90;99.90
11136;DHT22;5622;50.840;4.948;2023-03-14T03:51:15;9.90;99.90
11136;DHT22;5622;50.840;4.948;2023-03-14T03:53:43;9.90;99.90
11136;DHT22;5622;50.840;4.948;2023-03-14T03:56:10;9.90;99.90
11136;DHT22;5622;50.840;4.948;2023-03-14T03:58:37;9.80;99.90
11136;DHT22;5622;50.840;4.948;2023-03-14T04:01:05;9.90;99.90
11136;DHT22;5622;50.840;4.948;2023-03-14T04:03:32;9.80;99.90
11136;DHT22;5622;50.840;4.948;2023-03-14T04:06:01;9.90;99.90
11136;DHT22;5622;50.840;4.948;2023-03-14T04:08:30;9.90;99.90
11136;DHT22;5622;50.840;4.948;2023-03-14T04:11:00;9.90;99.90
11136;DHT22;5622;50.840;4.948;2023-03-14T04:13:28;9.90;99.90
11136;DHT22;5622;50.840;4.948;2023-03-14T04:15:55;9.80;99.90
11136;DHT22;5622;50.840;4.948;2023-03-14T04:18:24;9.90;99.90
11136;DHT22;5622;50.840;4.948;2023-03-14T04:20:52;9.90;99.90
11136;DHT22;5622;50.840;4.948;2023-03-14T04:23:20;9.90;99.90
11136;DHT22;5622;50.840;4.948;2023-03-14T04:25:50;9.90;99.90
11136;DHT22;5622;50.840;4.948;2023-03-14T04:28:18;9.90;99.90
11136;DHT22;5622;50.840;4.948;2023-03-14T04:30:45;9.90;99.90
11136;DHT22;5622;50.840;4.948;2023-03-14T04:33:12;9.80;99.90
11136;DHT22;5622;50.840;4.948;2023-03-14T04:35:42;9.80;99.90
11136;DHT22;5622;50.840;4.948;2023-03-14T04:38:10;9.80;99.90
11136;DHT22;5622;50.840;4.948;2023-03-14T04:40:37;9.90;99.90
11136;DHT22;5622;50.840;4.948;2023-03-14T04:43:06;9.90;99.90
11136;DHT22;5622;50.840;4.948;2023-03-14T04:45:33;9.90;99.90
11136;DHT22;5622;50.840;4.948;2023-03-14T04:48:00;9.80;99.90
11136;DHT22;5622;50.840;4.948;2023-03-14T04:50:27;9.90;99.90
11136;DHT22;5622;50.840;4.948;2023-03-14T04:52:55;9.90;99.90
11136;DHT22;5622;50.840;4.948;2023-03-14T04:55:22;9.80;99.90
11136;DHT22;5622;50.840;4.948;2023-03-14T04:57:49;9.80;99.90
11136;DHT22;5622;50.840;4.948;2023-03-14T05:00:18;9.80;99.90
11136;DHT22;5622;50.840;4.948;2023-03-14T05:02:45;9.80;99.90
11136;DHT22;5622;50.840;4.948;2023-03-14T05:05:12;9.80;99.90
11136;DHT22;5622;50.840;4.948;2023-03-14T05:07:39;9.80;99.90
11136;DHT22;5622;50.840;4.948;2023-03-14T05:10:07;9.80;99.90
11136;DHT22;5622;50.840;4.948;2023-03-14T05:12:35;9.80;99.90
11136;DHT22;5622;50.840;4.948;2023-03-14T05:15:02;9.80;99.90
11136;DHT22;5622;50.840;4.948;2023-03-14T05:17:32;9.80;99.90
11136;DHT22;5622;50.840;4.948;2023-03-14T05:19:59;9.80;99.90
11136;DHT22;5622;50.840;4.948;2023-03-14T05:22:26;9.90;99.90
11136;DHT22;5622;50.840;4.948;2023-03-14T05:24:53;9.80;99.90
11136;DHT22;5622;50.840;4.948;2023-03-14T05:27:24;9.80;99.90
11136;DHT22;5622;50.840;4.948;2023-03-14T05:29:51;9.80;99.90
11136;DHT22;5622;50.840;4.948;2023-03-14T05:32:18;9.90;99.90
11136;DHT22;5622;50.840;4.948;2023-03-14T05:34:47;9.80;99.90
11136;DHT22;5622;50.840;4.948;2023-03-14T05:37:14;9.80;99.90
11136;DHT22;5622;50.840;4.948;2023-03-14T05:39:41;9.90;99.90
11136;DHT22;5622;50.840;4.948;2023-03-14T05:42:08;9.90;99.90
11136;DHT22;5622;50.840;4.948;2023-03-14T05:44:35;9.90;99.90
11136;DHT22;5622;50.840;4.948;2023-03-14T05:47:02;9.90;99.90
11136;DHT22;5622;50.840;4.948;2023-03-14T05:49:29;9.90;99.90
11136;DHT22;5622;50.840;4.948;2023-03-14T05:51:58;9.90;99.90
11136;DHT22;5622;50.840;4.948;2023-03-14T05:54:25;9.90;99.90
11136;DHT22;5622;50.840;4.948;2023-03-14T05:56:52;9.90;99.90
11136;DHT22;5622;50.840;4.948;2023-03-14T05:59:19;9.90;99.90
11136;DHT22;5622;50.840;4.948;2023-03-14T06:01:46;9.90;99.90
11136;DHT22;5622;50.840;4.948;2023-03-14T06:04:15;9.90;99.90
11136;DHT22;5622;50.840;4.948;2023-03-14T06:06:42;10.00;99.90
11136;DHT22;5622;50.840;4.948;2023-03-14T06:09:11;9.90;99.90
11136;DHT22;5622;50.840;4.948;2023-03-14T06:11:38;9.90;99.90
11136;DHT22;5622;50.840;4.948;2023-03-14T06:14:05;9.90;99.90
11136;DHT22;5622;50.840;4.948;2023-03-14T06:16:32;10.00;99.90
11136;DHT22;5622;50.840;4.948;2023-03-14T06:18:59;9.90;99.90
11136;DHT22;5622;50.840;4.948;2023-03-14T06:21:27;10.00;99.90
11136;DHT22;5622;50.840;4.948;2023-03-14T06:23:54;10.00;99.90
11136;DHT22;5622;50.840;4.948;2023-03-14T06:26:22;10.00;99.90
11136;DHT22;5622;50.840;4.948;2023-03-14T06:28:49;10.00;99.90
11136;DHT22;5622;50.840;4.948;2023-03-14T06:31:18;10.00;99.90
11136;DHT22;5622;50.840;4.948;2023-03-14T06:33:46;10.10;99.90
11136;DHT22;5622;50.840;4.948;2023-03-14T06:36:13;10.10;99.90
11136;DHT22;5622;50.840;4.948;2023-03-14T06:38:40;10.10;99.90
11136;DHT22;5622;50.840;4.948;2023-03-14T06:41:09;10.10;99.90
11136;DHT22;5622;50.840;4.948;2023-03-14T06:43:38;10.10;99.90
11136;DHT22;5622;50.840;4.948;2023-03-14T06:46:05;10.10;99.90
11136;DHT22;5622;50.840;4.948;2023-03-14T06:48:32;10.10;99.90
11136;DHT22;5622;50.840;4.948;2023-03-14T06:51:00;10.20;99.90
11136;DHT22;5622;50.840;4.948;2023-03-14T06:53:27;10.10;99.90
11136;DHT22;5622;50.840;4.948;2023-03-14T06:55:54;10.10;99.90
11136;DHT22;5622;50.840;4.948;2023-03-14T06:58:21;10.20;99.90
11136;DHT22;5622;50.840;4.948;2023-03-14T07:00:49;10.20;99.90
11136;DHT22;5622;50.840;4.948;2023-03-14T07:03:16;10.20;99.90
11136;DHT22;5622;50.840;4.948;2023-03-14T07:05:43;10.20;99.90
11136;DHT22;5622;50.840;4.948;2023-03-14T07:08:11;10.20;99.90
11136;DHT22;5622;50.840;4.948;2023-03-14T07:10:38;10.20;99.90
11136;DHT22;5622;50.840;4.948;2023-03-14T07:13:05;10.20;99.90
11136;DHT22;5622;50.840;4.948;2023-03-14T07:15:32;10.20;99.90
11136;DHT22;5622;50.840;4.948;2023-03-14T07:18:01;10.20;99.90
11136;DHT22;5622;50.840;4.948;2023-03-14T07:20:28;10.20;99.90
11136;DHT22;5622;50.840;4.948;2023-03-14T07:22:58;10.20;99.90
11136;DHT22;5622;50.840;4.948;2023-03-14T07:25:26;10.20;99.90
11136;DHT22;5622;50.840;4.948;2023-03-14T07:27:53;10.10;99.90
11136;DHT22;5622;50.840;4.948;2023-03-14T07:30:21;10.10;99.90
11136;DHT22;5622;50.840;4.948;2023-03-14T07:32:48;10.20;99.90
11136;DHT22;5622;50.840;4.948;2023-03-14T07:35:17;10.10;99.90
11136;DHT22;5622;50.840;4.948;2023-03-14T07:37:44;9.70;99.90
11136;DHT22;5622;50.840;4.948;2023-03-14T07:40:12;9.50;99.90
11136;DHT22;5622;50.840;4.948;2023-03-14T07:42:41;9.40;99.90
11136;DHT22;5622;50.840;4.948;2023-03-14T07:45:08;9.10;99.90
11136;DHT22;5622;50.840;4.948;2023-03-14T07:47:36;9.00;99.90
11136;DHT22;5622;50.840;4.948;2023-03-14T07:50:04;8.90;99.90
11136;DHT22;5622;50.840;4.948;2023-03-14T07:52:32;8.70;99.90
11136;DHT22;5622;50.840;4.948;2023-03-14T07:54:59;8.50;99.90
11136;DHT22;5622;50.840;4.948;2023-03-14T07:57:26;8.40;99.90
11136;DHT22;5622;50.840;4.948;2023-03-14T07:59:54;8.30;99.90
11136;DHT22;5622;50.840;4.948;2023-03-14T08:02:21;8.30;99.90
11136;DHT22;5622;50.840;4.948;2023-03-14T08:04:49;8.20;99.90
11136;DHT22;5622;50.840;4.948;2023-03-14T08:07:17;8.10;99.90
11136;DHT22;5622;50.840;4.948;2023-03-14T08:09:45;8.10;99.90
11136;DHT22;5622;50.840;4.948;2023-03-14T08:12:12;8.00;99.90
11136;DHT22;5622;50.840;4.948;2023-03-14T08:14:39;8.10;99.90
11136;DHT22;5622;50.840;4.948;2023-03-14T08:17:06;8.00;99.90
11136;DHT22;5622;50.840;4.948;2023-03-14T08:19:34;8.00;99.90
11136;DHT22;5622;50.840;4.948;2023-03-14T08:22:01;8.00;99.90
11136;DHT22;5622;50.840;4.948;2023-03-14T08:24:29;8.00;99.90
11136;DHT22;5622;50.840;4.948;2023-03-14T08:26:57;8.00;99.90
11136;DHT22;5622;50.840;4.948;2023-03-14T08:29:25;8.00;99.90
11136;DHT22;5622;50.840;4.948;2023-03-14T08:31:52;8.10;99.90
11136;DHT22;5622;50.840;4.948;2023-03-14T08:34:20;8.10;99.90
11136;DHT22;5622;50.840;4.948;2023-03-14T08:36:47;8.10;99.90
11136;DHT22;5622;50.840;4.948;2023-03-14T08:39:14;8.10;99.90
11136;DHT22;5622;50.840;4.948;2023-03-14T08:41:41;8.10;99.90
11136;DHT22;5622;50.840;4.948;2023-03-14T08:44:11;8.10;99.90
11136;DHT22;5622;50.840;4.948;2023-03-14T08:46:38;8.10;99.90
11136;DHT22;5622;50.840;4.948;2023-03-14T08:49:05;8.10;99.90
11136;DHT22;5622;50.840;4.948;2023-03-14T08:51:33;8.10;99.90
11136;DHT22;5622;50.840;4.948;2023-03-14T08:54:00;8.10;99.90
11136;DHT22;5622;50.840;4.948;2023-03-14T08:56:27;8.10;99.90
11136;DHT22;5622;50.840;4.948;2023-03-14T08:58:54;8.20;99.90
11136;DHT22;5622;50.840;4.948;2023-03-14T09:01:22;8.20;99.90
11136;DHT22;5622;50.840;4.948;2023-03-14T09:03:50;8.10;99.90
11136;DHT22;5622;50.840;4.948;2023-03-14T09:06:17;8.10;99.90
11136;DHT22;5622;50.840;4.948;2023-03-14T09:08:45;8.10;99.90
11136;DHT22;5622;50.840;4.948;2023-03-14T09:11:13;8.10;99.90
11136;DHT22;5622;50.840;4.948;2023-03-14T09:13:40;8.10;99.90
11136;DHT22;5622;50.840;4.948;2023-03-14T09:16:08;8.10;99.90
11136;DHT22;5622;50.840;4.948;2023-03-14T09:18:37;8.00;99.90
11136;DHT22;5622;50.840;4.948;2023-03-14T09:21:04;8.00;99.90
11136;DHT22;5622;50.840;4.948;2023-03-14T09:23:31;8.00;99.90
11136;DHT22;5622;50.840;4.948;2023-03-14T09:25:59;8.00;99.90
11136;DHT22;5622;50.840;4.948;2023-03-14T09:28:27;8.00;99.90
11136;DHT22;5622;50.840;4.948;2023-03-14T09:30:54;8.00;99.90
11136;DHT22;5622;50.840;4.948;2023-03-14T09:33:21;8.00;99.90
11136;DHT22;5622;50.840;4.948;2023-03-14T09:35:50;8.00;99.90
11136;DHT22;5622;50.840;4.948;2023-03-14T09:38:17;8.10;99.90
11136;DHT22;5622;50.840;4.948;2023-03-14T09:40:47;8.10;99.90
11136;DHT22;5622;50.840;4.948;2023-03-14T09:43:15;8.20;99.90
11136;DHT22;5622;50.840;4.948;2023-03-14T09:45:44;8.20;99.90
11136;DHT22;5622;50.840;4.948;2023-03-14T09:48:16;8.20;99.90
11136;DHT22;5622;50.840;4.948;2023-03-14T09:50:46;8.10;99.90
11136;DHT22;5622;50.840;4.948;2023-03-14T09:53:18;8.10;99.90
11136;DHT22;5622;50.840;4.948;2023-03-14T09:55:47;8.00;99.90
11136;DHT22;5622;50.840;4.948;2023-03-14T09:58:19;8.00;99.90
11136;DHT22;5622;50.840;4.948;2023-03-14T10:00:46;7.90;99.90
11136;DHT22;5622;50.840;4.948;2023-03-14T10:03:26;7.80;99.90
11136;DHT22;5622;50.840;4.948;2023-03-14T10:05:56;7.80;99.90
11136;DHT22;5622;50.840;4.948;2023-03-14T10:08:25;7.80;99.90
11136;DHT22;5622;50.840;4.948;2023-03-14T10:10:52;7.80;99.90
11136;DHT22;5622;50.840;4.948;2023-03-14T10:13:21;7.80;99.90
11136;DHT22;5622;50.840;4.948;2023-03-14T10:15:53;7.80;99.90
11136;DHT22;5622;50.840;4.948;2023-03-14T10:18:21;7.80;99.90
11136;DHT22;5622;50.840;4.948;2023-03-14T10:20:52;7.80;99.90
11136;DHT22;5622;50.840;4.948;2023-03-14T10:23:32;7.80;99.90
11136;DHT22;5622;50.840;4.948;2023-03-14T10:26:06;7.80;99.90
11136;DHT22;5622;50.840;4.948;2023-03-14T10:28:38;7.90;99.90
11136;DHT22;5622;50.840;4.948;2023-03-14T10:31:05;7.90;99.90
11136;DHT22;5622;50.840;4.948;2023-03-14T10:33:34;8.00;99.90
11136;DHT22;5622;50.840;4.948;2023-03-14T10:36:03;8.10;99.90
11136;DHT22;5622;50.840;4.948;2023-03-14T10:38:35;8.10;99.90
11136;DHT22;5622;50.840;4.948;2023-03-14T10:41:17;8.00;99.90
11136;DHT22;5622;50.840;4.948;2023-03-14T10:43:45;8.10;99.90
11136;DHT22;5622;50.840;4.948;2023-03-14T10:46:18;8.10;99.90
11136;DHT22;5622;50.840;4.948;2023-03-14T10:48:47;8.00;99.90
11136;DHT22;5622;50.840;4.948;2023-03-14T10:51:19;8.10;99.90
11136;DHT22;5622;50.840;4.948;2023-03-14T10:53:56;8.00;99.90
11136;DHT22;5622;50.840;4.948;2023-03-14T10:56:25;7.90;99.90
11136;DHT22;5622;50.840;4.948;2023-03-14T10:58:55;7.80;99.90
11136;DHT22;5622;50.840;4.948;2023-03-14T11:01:30;7.70;99.90
11136;DHT22;5622;50.840;4.948;2023-03-14T11:04:05;7.70;99.90
11136;DHT22;5622;50.840;4.948;2023-03-14T11:06:39;7.50;99.90
11136;DHT22;5622;50.840;4.948;2023-03-14T11:09:17;7.50;99.90
11136;DHT22;5622;50.840;4.948;2023-03-14T11:11:47;7.50;99.90
11136;DHT22;5622;50.840;4.948;2023-03-14T11:14:20;7.30;99.90
11136;DHT22;5622;50.840;4.948;2023-03-14T11:16:57;7.30;99.90
11136;DHT22;5622;50.840;4.948;2023-03-14T11:19:33;7.30;99.90
11136;DHT22;5622;50.840;4.948;2023-03-14T11:22:08;7.20;99.90
11136;DHT22;5622;50.840;4.948;2023-03-14T11:27:36;7.20;99.90
11136;DHT22;5622;50.840;4.948;2023-03-14T11:30:17;7.20;99.90
11136;DHT22;5622;50.840;4.948;2023-03-14T11:32:53;7.20;99.90
11136;DHT22;5622;50.840;4.948;2023-03-14T11:35:25;7.10;99.90
11136;DHT22;5622;50.840;4.948;2023-03-14T11:37:57;7.10;99.90
11136;DHT22;5622;50.840;4.948;2023-03-14T11:40:28;7.00;99.90
11136;DHT22;5622;50.840;4.948;2023-03-14T11:43:05;7.00;99.90
11136;DHT22;5622;50.840;4.948;2023-03-14T11:45:35;6.90;99.90
11136;DHT22;5622;50.840;4.948;2023-03-14T11:48:24;6.90;99.90
11136;DHT22;5622;50.840;4.948;2023-03-14T11:50:58;6.90;99.90
11136;DHT22;5622;50.840;4.948;2023-03-14T11:53:38;6.80;99.90
11136;DHT22;5622;50.840;4.948;2023-03-14T11:56:13;6.80;99.90
11136;DHT22;5622;50.840;4.948;2023-03-14T11:58:47;6.80;99.90
11136;DHT22;5622;50.840;4.948;2023-03-14T12:01:17;6.80;99.90
11136;DHT22;5622;50.840;4.948;2023-03-14T12:03:53;6.90;99.90
11136;DHT22;5622;50.840;4.948;2023-03-14T12:06:27;7.00;99.90
11136;DHT22;5622;50.840;4.948;2023-03-14T12:08:56;7.10;99.90
11136;DHT22;5622;50.840;4.948;2023-03-14T12:11:33;7.20;99.90
11136;DHT22;5622;50.840;4.948;2023-03-14T12:14:02;7.30;99.90
11136;DHT22;5622;50.840;4.948;2023-03-14T12:16:37;7.30;99.90
11136;DHT22;5622;50.840;4.948;2023-03-14T12:22:25;7.50;99.90
11136;DHT22;5622;50.840;4.948;2023-03-14T12:24:57;7.50;99.90
11136;DHT22;5622;50.840;4.948;2023-03-14T12:27:48;7.60;99.90
11136;DHT22;5622;50.840;4.948;2023-03-14T12:30:24;7.60;99.90
11136;DHT22;5622;50.840;4.948;2023-03-14T12:33:25;7.70;99.90
11136;DHT22;5622;50.840;4.948;2023-03-14T12:35:58;7.70;99.90
11136;DHT22;5622;50.840;4.948;2023-03-14T12:38:32;7.70;99.90
11136;DHT22;5622;50.840;4.948;2023-03-14T12:41:14;7.70;99.90
11136;DHT22;5622;50.840;4.948;2023-03-14T12:43:43;7.70;99.90
11136;DHT22;5622;50.840;4.948;2023-03-14T12:46:22;7.60;99.90
11136;DHT22;5622;50.840;4.948;2023-03-14T12:48:50;7.70;99.90
11136;DHT22;5622;50.840;4.948;2023-03-14T12:51:28;7.50;99.90
11136;DHT22;5622;50.840;4.948;2023-03-14T12:54:21;7.40;99.90
11136;DHT22;5622;50.840;4.948;2023-03-14T12:59:46;7.30;99.90
11136;DHT22;5622;50.840;4.948;2023-03-14T13:02:20;7.20;99.90
11136;DHT22;5622;50.840;4.948;2023-03-14T13:04:50;7.00;99.90
11136;DHT22;5622;50.840;4.948;2023-03-14T13:07:31;6.80;99.90
11136;DHT22;5622;50.840;4.948;2023-03-14T13:10:20;6.60;99.90
11136;DHT22;5622;50.840;4.948;2023-03-14T13:12:51;6.40;99.90
11136;DHT22;5622;50.840;4.948;2023-03-14T13:15:27;6.30;99.90
11136;DHT22;5622;50.840;4.948;2023-03-14T13:17:59;6.20;99.90
11136;DHT22;5622;50.840;4.948;2023-03-14T13:20:32;6.10;99.90
11136;DHT22;5622;50.840;4.948;2023-03-14T13:23:01;6.00;99.90
11136;DHT22;5622;50.840;4.948;2023-03-14T13:25:33;6.00;99.90
11136;DHT22;5622;50.840;4.948;2023-03-14T13:28:01;6.00;99.90
11136;DHT22;5622;50.840;4.948;2023-03-14T13:30:38;6.00;99.90
11136;DHT22;5622;50.840;4.948;2023-03-14T13:33:10;6.00;99.90
11136;DHT22;5622;50.840;4.948;2023-03-14T13:35:40;6.10;99.90
11136;DHT22;5622;50.840;4.948;2023-03-14T13:38:17;6.20;99.90
11136;DHT22;5622;50.840;4.948;2023-03-14T13:40:45;6.20;99.90
11136;DHT22;5622;50.840;4.948;2023-03-14T13:43:16;6.30;99.90
11136;DHT22;5622;50.840;4.948;2023-03-14T13:45:51;6.30;99.90
11136;DHT22;5622;50.840;4.948;2023-03-14T13:48:20;6.30;99.90
11136;DHT22;5622;50.840;4.948;2023-03-14T13:50:53;6.30;99.90
11136;DHT22;5622;50.840;4.948;2023-03-14T13:53:20;6.40;99.90
11136;DHT22;5622;50.840;4.948;2023-03-14T13:55:48;6.30;99.90
11136;DHT22;5622;50.840;4.948;2023-03-14T13:58:26;6.40;99.90
11136;DHT22;5622;50.840;4.948;2023-03-14T14:01:05;6.30;99.90
11136;DHT22;5622;50.840;4.948;2023-03-14T14:03:35;6.10;99.90
11136;DHT22;5622;50.840;4.948;2023-03-14T14:06:19;6.10;99.90
11136;DHT22;5622;50.840;4.948;2023-03-14T14:08:48;5.90;99.90
11136;DHT22;5622;50.840;4.948;2023-03-14T14:11:21;5.80;99.90
11136;DHT22;5622;50.840;4.948;2023-03-14T14:13:49;5.80;99.90
11136;DHT22;5622;50.840;4.948;2023-03-14T14:16:20;5.70;99.90
11136;DHT22;5622;50.840;4.948;2023-03-14T14:18:51;5.70;99.90
11136;DHT22;5622;50.840;4.948;2023-03-14T14:21:18;5.80;99.90
11136;DHT22;5622;50.840;4.948;2023-03-14T14:23:46;5.80;99.90
11136;DHT22;5622;50.840;4.948;2023-03-14T14:26:16;5.80;99.90
11136;DHT22;5622;50.840;4.948;2023-03-14T14:29:02;5.90;99.90
11136;DHT22;5622;50.840;4.948;2023-03-14T14:31:31;5.90;99.90
11136;DHT22;5622;50.840;4.948;2023-03-14T14:33:59;6.00;99.90
11136;DHT22;5622;50.840;4.948;2023-03-14T14:36:28;6.10;99.90
11136;DHT22;5622;50.840;4.948;2023-03-14T14:39:01;6.20;99.90
11136;DHT22;5622;50.840;4.948;2023-03-14T14:41:32;6.20;99.90
11136;DHT22;5622;50.840;4.948;2023-03-14T14:44:03;6.30;99.90
11136;DHT22;5622;50.840;4.948;2023-03-14T14:46:35;6.40;99.90
11136;DHT22;5622;50.840;4.948;2023-03-14T14:49:06;6.40;99.90
11136;DHT22;5622;50.840;4.948;2023-03-14T14:51:41;6.50;99.90
11136;DHT22;5622;50.840;4.948;2023-03-14T14:54:15;6.50;99.90
11136;DHT22;5622;50.840;4.948;2023-03-14T14:56:48;6.60;99.90
11136;DHT22;5622;50.840;4.948;2023-03-14T14:59:25;6.60;99.90
11136;DHT22;5622;50.840;4.948;2023-03-14T15:01:58;6.60;99.90
11136;DHT22;5622;50.840;4.948;2023-03-14T15:04:26;6.70;99.90
11136;DHT22;5622;50.840;4.948;2023-03-14T15:06:53;6.60;99.90
11136;DHT22;5622;50.840;4.948;2023-03-14T15:09:20;6.70;99.90
11136;DHT22;5622;50.840;4.948;2023-03-14T15:11:48;6.70;99.90
11136;DHT22;5622;50.840;4.948;2023-03-14T15:14:16;6.70;99.90
11136;DHT22;5622;50.840;4.948;2023-03-14T15:16:43;6.60;99.90
11136;DHT22;5622;50.840;4.948;2023-03-14T15:19:20;6.60;99.90
11136;DHT22;5622;50.840;4.948;2023-03-14T15:21:48;6.60;99.90
11136;DHT22;5622;50.840;4.948;2023-03-14T15:24:15;6.50;99.90
11136;DHT22;5622;50.840;4.948;2023-03-14T15:26:42;6.50;99.90
11136;DHT22;5622;50.840;4.948;2023-03-14T15:29:10;6.50;99.90
11136;DHT22;5622;50.840;4.948;2023-03-14T15:31:38;6.40;99.90
11136;DHT22;5622;50.840;4.948;2023-03-14T15:34:05;6.20;99.90
11136;DHT22;5622;50.840;4.948;2023-03-14T15:36:34;6.20;99.90
11136;DHT22;5622;50.840;4.948;2023-03-14T15:39:03;6.10;99.90
11136;DHT22;5622;50.840;4.948;2023-03-14T15:41:31;5.90;99.90
11136;DHT22;5622;50.840;4.948;2023-03-14T15:43:58;5.90;99.90
11136;DHT22;5622;50.840;4.948;2023-03-14T15:46:25;5.80;99.90
11136;DHT22;5622;50.840;4.948;2023-03-14T15:48:53;5.70;99.90
11136;DHT22;5622;50.840;4.948;2023-03-14T15:51:20;5.60;99.90
11136;DHT22;5622;50.840;4.948;2023-03-14T15:53:48;5.70;99.90
11136;DHT22;5622;50.840;4.948;2023-03-14T15:56:18;5.70;99.90
11136;DHT22;5622;50.840;4.948;2023-03-14T15:58:45;5.70;99.90
11136;DHT22;5622;50.840;4.948;2023-03-14T16:01:14;5.70;99.90
11136;DHT22;5622;50.840;4.948;2023-03-14T16:03:43;5.70;99.90
11136;DHT22;5622;50.840;4.948;2023-03-14T16:06:11;5.70;99.90
11136;DHT22;5622;50.840;4.948;2023-03-14T16:08:38;5.90;99.90
11136;DHT22;5622;50.840;4.948;2023-03-14T16:11:06;6.00;99.90
11136;DHT22;5622;50.840;4.948;2023-03-14T16:13:33;5.80;99.90
11136;DHT22;5622;50.840;4.948;2023-03-14T16:16:02;5.80;99.90
11136;DHT22;5622;50.840;4.948;2023-03-14T16:18:31;5.80;99.90
11136;DHT22;5622;50.840;4.948;2023-03-14T16:20:59;6.00;99.90